createdAt,value
2024-04-25T00:01:22.224Z,7.30
2024-04-25T00:03:50.196Z,4.07
2024-04-25T00:06:17.220Z,4.93
2024-04-25T00:08:44.083Z,11.65
2024-04-25T00:11:13.268Z,5.57
2024-04-25T00:13:40.247Z,5.43
2024-04-25T00:16:07.116Z,8.75
2024-04-25T00:18:33.946Z,7.43
2024-04-25T00:21:03.482Z,9.00
2024-04-25T00:23:30.495Z,3.20
2024-04-25T00:26:02.154Z,10.07
2024-04-25T00:28:29.851Z,6.88
2024-04-25T00:30:56.639Z,5.25
2024-04-25T00:33:23.601Z,4.95
2024-04-25T00:35:52.860Z,6.05
2024-04-25T00:38:19.776Z,7.53
2024-04-25T00:40:47.979Z,6.47
2024-04-25T00:43:15.071Z,7.28
2024-04-25T00:45:44.145Z,6.10
2024-04-25T00:48:11.214Z,12.10
2024-04-25T00:50:38.407Z,5.50
2024-04-25T00:53:07.491Z,10.27
2024-04-25T00:55:36.636Z,5.35
2024-04-25T00:58:06.149Z,5.50
2024-04-25T01:00:35.437Z,8.57
2024-04-25T01:03:04.410Z,8.68
2024-04-25T01:05:35.121Z,8.35
2024-04-25T01:08:02.166Z,10.60
2024-04-25T01:10:28.969Z,8.18
2024-04-25T01:12:55.784Z,12.60
2024-04-25T01:15:22.665Z,14.88
2024-04-25T01:17:49.599Z,10.35
2024-04-25T01:20:16.631Z,9.95
2024-04-25T01:22:50.026Z,9.82
2024-04-25T01:25:19.220Z,6.43
2024-04-25T01:27:46.378Z,8.73
2024-04-25T01:30:14.195Z,5.93
2024-04-25T01:32:42.086Z,6.65
2024-04-25T01:35:11.504Z,7.65
2024-04-25T01:37:41.166Z,9.55
2024-04-25T01:40:08.683Z,10.52
2024-04-25T01:42:37.846Z,8.05
2024-04-25T01:45:05.053Z,7.57
2024-04-25T01:47:32.041Z,10.02
2024-04-25T01:50:01.168Z,7.50
2024-04-25T01:52:27.984Z,8.25
2024-04-25T01:54:54.783Z,8.93
2024-04-25T01:57:21.649Z,8.43
2024-04-25T01:59:48.763Z,10.32
2024-04-25T02:02:15.715Z,10.68
2024-04-25T02:04:42.679Z,9.00
2024-04-25T02:07:12.074Z,10.20
2024-04-25T02:09:39.241Z,8.40
2024-04-25T02:12:08.883Z,9.02
2024-04-25T02:14:37.912Z,12.02
2024-04-25T02:17:07.355Z,10.10
2024-04-25T02:19:36.414Z,12.32
2024-04-25T02:22:22.342Z,11.25
2024-04-25T02:25:07.394Z,15.40
2024-04-25T02:27:34.161Z,8.57
2024-04-25T02:30:03.271Z,9.52
2024-04-25T02:32:30.209Z,9.75
2024-04-25T02:34:57.122Z,9.10
2024-04-25T02:37:23.973Z,15.95
2024-04-25T02:39:51.259Z,8.70
2024-04-25T02:42:18.032Z,8.93
2024-04-25T02:44:44.793Z,9.35
2024-04-25T02:47:11.649Z,11.70
2024-04-25T02:49:38.462Z,12.77
2024-04-25T02:52:05.538Z,14.32
2024-04-25T02:54:32.332Z,8.85
2024-04-25T02:57:00.177Z,11.90
2024-04-25T02:59:27.049Z,15.00
2024-04-25T03:01:53.859Z,12.85
2024-04-25T03:04:20.710Z,12.40
2024-04-25T03:06:47.464Z,11.80
2024-04-25T03:09:17.293Z,10.48
2024-04-25T03:11:46.573Z,10.32
2024-04-25T03:14:13.544Z,8.75
2024-04-25T03:16:42.600Z,11.20
2024-04-25T03:19:11.664Z,11.55
2024-04-25T03:21:38.516Z,15.38
2024-04-25T03:24:07.603Z,16.27
2024-04-25T03:26:34.395Z,15.25
2024-04-25T03:29:01.176Z,10.00
2024-04-25T03:31:27.981Z,11.50
2024-04-25T03:33:54.747Z,10.25
2024-04-25T03:36:21.550Z,16.40
2024-04-25T03:38:50.747Z,12.50
2024-04-25T03:41:18.162Z,16.88
2024-04-25T03:43:45.589Z,9.95
2024-04-25T03:46:13.061Z,11.60
2024-04-25T03:48:42.154Z,13.70
2024-04-25T03:51:09.271Z,13.25
2024-04-25T03:53:36.030Z,17.35
2024-04-25T03:56:05.287Z,16.13
2024-04-25T03:58:34.522Z,13.07
2024-04-25T04:01:02.317Z,16.00
2024-04-25T04:03:29.131Z,14.70
2024-04-25T04:05:55.986Z,15.25
2024-04-25T04:08:23.235Z,17.90
2024-04-25T04:10:50.285Z,16.77
2024-04-25T04:13:17.164Z,11.88
2024-04-25T04:15:44.011Z,16.45
2024-04-25T04:18:10.996Z,12.32
2024-04-25T04:20:37.899Z,13.27
2024-04-25T04:23:04.942Z,15.60
2024-04-25T04:25:31.880Z,17.70
2024-04-25T04:27:58.714Z,18.95
2024-04-25T04:30:25.493Z,18.92
2024-04-25T04:32:53.311Z,18.25
2024-04-25T04:35:22.419Z,17.02
2024-04-25T04:37:49.246Z,19.38
2024-04-25T04:40:16.120Z,17.45
2024-04-25T04:42:42.908Z,18.92
2024-04-25T04:45:09.823Z,16.45
2024-04-25T04:47:39.501Z,15.75
2024-04-25T04:50:06.605Z,19.08
2024-04-25T04:52:33.742Z,13.88
2024-04-25T04:55:00.719Z,15.38
2024-04-25T04:57:27.525Z,12.40
2024-04-25T04:59:54.283Z,17.23
2024-04-25T05:02:21.181Z,11.57
2024-04-25T05:04:48.785Z,14.10
2024-04-25T05:07:17.752Z,15.68
2024-04-25T05:09:44.603Z,16.35
2024-04-25T05:12:13.909Z,16.50
2024-04-25T05:14:40.842Z,15.75
2024-04-25T05:17:08.023Z,13.95
2024-04-25T05:19:34.970Z,10.48
2024-04-25T05:22:04.415Z,10.70
2024-04-25T05:24:33.743Z,19.70
2024-04-25T05:27:00.648Z,14.15
2024-04-25T05:29:27.473Z,19.67
2024-04-25T05:31:58.836Z,16.23
2024-04-25T05:34:25.626Z,15.30
2024-04-25T05:36:55.663Z,17.33
2024-04-25T05:39:22.469Z,19.45
2024-04-25T05:41:49.285Z,17.23
2024-04-25T05:44:20.880Z,18.85
2024-04-25T05:46:47.768Z,18.27
2024-04-25T05:49:14.747Z,12.70
2024-04-25T05:51:41.514Z,21.10
2024-04-25T05:54:08.470Z,18.98
2024-04-25T05:56:35.318Z,15.73
2024-04-25T05:59:02.143Z,14.90
2024-04-25T06:01:31.073Z,12.55
2024-04-25T06:03:57.976Z,12.95
2024-04-25T06:06:28.329Z,15.63
2024-04-25T06:08:55.270Z,17.83
2024-04-25T06:11:24.143Z,15.63
2024-04-25T06:13:51.444Z,16.88
2024-04-25T06:16:20.572Z,15.65
2024-04-25T06:18:47.619Z,19.70
2024-04-25T06:21:16.929Z,17.13
2024-04-25T06:23:44.303Z,15.75
2024-04-25T06:26:11.312Z,17.20
2024-04-25T06:28:39.907Z,19.98
2024-04-25T06:31:07.253Z,16.38
2024-04-25T06:33:34.556Z,14.75
2024-04-25T06:36:01.431Z,14.57
2024-04-25T06:38:28.586Z,15.65
2024-04-25T06:40:55.497Z,12.45
2024-04-25T06:43:22.320Z,18.63
2024-04-25T06:45:49.176Z,16.30
2024-04-25T06:48:16.191Z,16.10
2024-04-25T06:50:45.567Z,15.00
2024-04-25T06:53:13.693Z,15.95
2024-04-25T06:55:40.615Z,15.98
2024-04-25T06:58:07.883Z,17.45
2024-04-25T07:00:34.796Z,18.17
2024-04-25T07:03:04.083Z,14.60
2024-04-25T07:05:33.218Z,12.57
2024-04-25T07:08:00.128Z,16.27
2024-04-25T07:10:27.121Z,18.88
2024-04-25T07:12:54.460Z,21.15
2024-04-25T07:15:25.459Z,14.07
2024-04-25T07:17:57.720Z,14.27
2024-04-25T07:20:26.967Z,17.30
2024-04-25T07:22:53.765Z,15.55
2024-04-25T07:25:20.804Z,15.05
2024-04-25T07:27:47.677Z,18.63
2024-04-25T07:30:19.767Z,12.02
2024-04-25T07:32:47.026Z,18.90
2024-04-25T07:35:15.598Z,13.40
2024-04-25T07:37:42.788Z,18.60
2024-04-25T07:40:11.987Z,13.82
2024-04-25T07:42:38.877Z,14.85
2024-04-25T07:45:06.509Z,15.20
2024-04-25T07:47:35.854Z,13.35
2024-04-25T07:50:04.903Z,13.32
2024-04-25T07:52:31.765Z,11.27
2024-04-25T07:54:58.577Z,10.85
2024-04-25T07:57:25.372Z,10.48
2024-04-25T07:59:56.584Z,11.00
2024-04-25T08:02:23.726Z,10.85
2024-04-25T08:04:50.888Z,17.45
2024-04-25T08:07:17.792Z,9.20
2024-04-25T08:09:44.698Z,11.68
2024-04-25T08:12:11.618Z,13.82
2024-04-25T08:14:41.708Z,9.88
2024-04-25T08:17:08.835Z,7.70
2024-04-25T08:19:37.940Z,16.33
2024-04-25T08:22:06.736Z,8.95
2024-04-25T08:24:33.689Z,13.50
2024-04-25T08:27:00.779Z,11.30
2024-04-25T08:29:28.086Z,10.82
2024-04-25T08:31:56.093Z,15.23
2024-04-25T08:34:23.498Z,13.32
2024-04-25T08:36:50.618Z,8.63
2024-04-25T08:39:19.672Z,10.05
2024-04-25T08:41:49.480Z,9.98
2024-04-25T08:44:18.603Z,10.57
2024-04-25T08:46:48.632Z,6.68
2024-04-25T08:49:17.752Z,10.98
2024-04-25T08:51:46.172Z,14.18
2024-04-25T08:54:17.097Z,9.02
2024-04-25T08:56:44.037Z,5.50
2024-04-25T08:59:11.179Z,8.77
2024-04-25T09:01:41.199Z,7.63
2024-04-25T09:04:15.723Z,14.55
2024-04-25T09:06:43.534Z,10.45
2024-04-25T09:09:11.470Z,8.70
2024-04-25T09:11:41.278Z,8.57
2024-04-25T09:14:11.205Z,10.18
2024-04-25T09:16:38.272Z,11.18
2024-04-25T09:19:08.437Z,8.93
2024-04-25T09:21:37.406Z,11.10
2024-04-25T09:24:04.511Z,12.35
2024-04-25T09:26:32.094Z,7.43
2024-04-25T09:29:00.549Z,10.50
2024-04-25T09:31:28.498Z,7.72
2024-04-25T09:33:57.786Z,7.50
2024-04-25T09:36:25.212Z,7.78
2024-04-25T09:38:53.112Z,9.80
2024-04-25T09:41:23.396Z,7.03
2024-04-25T09:43:51.468Z,8.32
2024-04-25T09:46:29.781Z,7.30
2024-04-25T09:49:00.838Z,6.80
2024-04-25T09:51:37.501Z,7.20
2024-04-25T09:54:15.745Z,4.63
2024-04-25T09:56:45.017Z,6.93
2024-04-25T09:59:54.277Z,4.75
2024-04-25T10:02:22.691Z,7.95
2024-04-25T10:04:53.321Z,7.95
2024-04-25T10:07:21.422Z,11.70
2024-04-25T10:09:51.951Z,5.57
2024-04-25T10:12:23.784Z,9.77
2024-04-25T10:15:01.693Z,4.22
2024-04-25T10:17:33.290Z,9.07
2024-04-25T10:20:01.865Z,8.23
2024-04-25T10:22:30.668Z,4.15
2024-04-25T10:25:04.961Z,4.63
2024-04-25T10:27:33.172Z,5.60
2024-04-25T10:30:07.991Z,9.10
2024-04-25T10:32:35.329Z,7.30
2024-04-25T10:35:05.011Z,8.75
2024-04-25T10:37:40.569Z,8.75
2024-04-25T10:40:15.193Z,3.53
2024-04-25T10:42:42.496Z,3.53
2024-04-25T10:45:09.467Z,4.97
2024-04-25T10:47:36.808Z,6.57
2024-04-25T10:50:04.022Z,6.85
2024-04-25T10:52:33.470Z,5.78
2024-04-25T10:55:00.429Z,10.38
2024-04-25T10:57:31.353Z,13.23
2024-04-25T10:59:58.727Z,7.28
2024-04-25T11:02:35.191Z,7.28
2024-04-25T11:05:02.164Z,7.55
2024-04-25T11:07:29.361Z,5.10
2024-04-25T11:09:56.944Z,4.80
2024-04-25T11:12:26.617Z,4.05
2024-04-25T11:14:53.507Z,7.28
2024-04-25T11:17:22.781Z,4.75
2024-04-25T11:19:50.685Z,4.80
2024-04-25T11:24:50.681Z,4.15
2024-04-25T11:27:17.726Z,4.47
2024-04-25T11:29:44.760Z,6.13
2024-04-25T11:32:17.945Z,2.40
2024-04-25T11:34:44.930Z,1.45
2024-04-25T11:37:11.867Z,3.50
2024-04-25T11:39:40.480Z,8.38
2024-04-25T11:42:09.864Z,3.13
2024-04-25T11:44:39.117Z,2.88
2024-04-25T11:47:06.900Z,2.95
2024-04-25T11:49:34.696Z,7.55
2024-04-25T11:52:01.959Z,5.18
2024-04-25T11:54:29.066Z,8.77
2024-04-25T11:56:56.450Z,4.82
2024-04-25T11:59:23.530Z,4.38
2024-04-25T12:01:53.979Z,3.42
2024-04-25T12:04:22.111Z,3.72
2024-04-25T12:06:49.056Z,7.25
2024-04-25T12:09:15.903Z,5.97
2024-04-25T12:11:47.891Z,7.30
2024-04-25T12:14:17.556Z,6.30
2024-04-25T12:16:44.559Z,3.13
2024-04-25T12:19:11.842Z,3.28
2024-04-25T12:21:39.170Z,3.20
2024-04-25T12:24:06.727Z,4.60
2024-04-25T12:26:36.421Z,4.63
2024-04-25T12:29:03.684Z,5.68
2024-04-25T12:31:33.304Z,4.22
2024-04-25T12:34:01.444Z,6.28
2024-04-25T12:36:28.635Z,4.68
2024-04-25T12:38:56.036Z,6.07
2024-04-25T12:41:23.459Z,3.03
2024-04-25T12:43:50.995Z,6.18
2024-04-25T12:46:20.005Z,4.00
2024-04-25T12:48:47.114Z,5.38
2024-04-25T12:51:14.074Z,3.83
2024-04-25T12:53:41.653Z,6.07
2024-04-25T12:56:08.998Z,3.65
2024-04-25T12:58:41.856Z,4.90
2024-04-25T13:01:11.934Z,8.00
2024-04-25T13:03:39.072Z,4.68
2024-04-25T13:06:09.647Z,3.72
2024-04-25T13:08:37.968Z,2.17
2024-04-25T13:11:07.591Z,3.17
2024-04-25T13:13:34.872Z,2.13
2024-04-25T13:16:01.702Z,5.45
2024-04-25T13:18:29.538Z,3.63
2024-04-25T13:21:02.628Z,3.55
2024-04-25T13:23:33.042Z,3.15
2024-04-25T13:26:00.360Z,7.30
2024-04-25T13:28:27.849Z,3.33
2024-04-25T13:30:54.776Z,5.50
2024-04-25T13:33:25.017Z,3.80
2024-04-25T13:35:52.418Z,4.30
2024-04-25T13:38:19.623Z,3.05
2024-04-25T13:40:46.746Z,5.22
2024-04-25T13:43:15.404Z,5.22
2024-04-25T13:45:42.372Z,3.70
2024-04-25T13:48:09.678Z,3.58
2024-04-25T13:50:36.744Z,4.53
2024-04-25T13:53:06.244Z,5.25
2024-04-25T13:55:35.859Z,6.90
2024-04-25T13:58:04.047Z,6.47
2024-04-25T14:00:31.484Z,16.63
2024-04-25T14:02:58.477Z,7.38
2024-04-25T14:05:25.620Z,5.50
2024-04-25T14:07:55.235Z,3.83
2024-04-25T14:10:22.419Z,8.35
2024-04-25T14:12:50.736Z,3.60
2024-04-25T14:15:17.799Z,3.15
2024-04-25T14:17:45.217Z,5.30
2024-04-25T14:20:12.691Z,7.75
2024-04-25T14:22:42.521Z,4.63
2024-04-25T14:25:28.187Z,5.03
2024-04-25T14:28:13.653Z,4.40
2024-04-25T14:30:40.636Z,2.80
2024-04-25T14:33:07.801Z,5.20
2024-04-25T14:35:34.941Z,4.95
2024-04-25T14:38:02.017Z,4.10
2024-04-25T14:40:31.767Z,3.08
2024-04-25T14:43:01.877Z,2.72
2024-04-25T14:45:28.891Z,2.53
2024-04-25T14:47:58.228Z,6.32
2024-04-25T14:50:25.251Z,1.98
2024-04-25T14:52:52.189Z,4.32
2024-04-25T14:55:19.027Z,2.15
2024-04-25T14:57:45.976Z,2.42
2024-04-25T15:00:14.119Z,4.00
2024-04-25T15:02:41.144Z,2.78
2024-04-25T15:05:08.812Z,2.70
2024-04-25T15:07:36.208Z,3.88
2024-04-25T15:10:08.472Z,4.57
2024-04-25T15:12:40.567Z,4.47
2024-04-25T15:15:12.518Z,4.75
2024-04-25T15:17:50.062Z,3.13
2024-04-25T15:20:17.623Z,1.42
2024-04-25T15:22:45.162Z,3.92
2024-04-25T15:25:12.280Z,1.77
2024-04-25T15:27:41.344Z,2.85
2024-04-25T15:30:08.776Z,2.67
2024-04-25T15:32:35.969Z,3.35
2024-04-25T15:35:04.018Z,2.63
2024-04-25T15:37:33.769Z,5.82
2024-04-25T15:40:03.183Z,2.58
2024-04-25T15:42:30.105Z,1.98
2024-04-25T15:44:57.014Z,4.20
2024-04-25T15:47:24.121Z,2.83
2024-04-25T15:49:53.249Z,5.97
2024-04-25T15:52:20.179Z,5.20
2024-04-25T15:54:50.178Z,3.28
2024-04-25T15:57:17.244Z,3.08
2024-04-25T15:59:44.529Z,4.47
2024-04-25T16:02:11.569Z,5.00
2024-04-25T16:04:41.495Z,5.03
2024-04-25T16:07:08.942Z,3.63
2024-04-25T16:09:36.285Z,7.20
2024-04-25T16:12:04.003Z,4.50
2024-04-25T16:14:31.041Z,3.25
2024-04-25T16:16:59.029Z,6.22
2024-04-25T16:19:30.062Z,4.72
2024-04-25T16:22:01.345Z,4.03
2024-04-25T16:24:29.623Z,5.07
2024-04-25T16:26:59.190Z,3.42
2024-04-25T16:29:30.690Z,4.22
2024-04-25T16:31:57.782Z,2.80
2024-04-25T16:34:25.193Z,4.72
2024-04-25T16:36:52.390Z,3.60
2024-04-25T16:39:19.390Z,5.03
2024-04-25T16:41:46.463Z,2.58
2024-04-25T16:44:13.765Z,3.85
2024-04-25T16:46:41.505Z,3.92
2024-04-25T16:49:08.493Z,3.45
2024-04-25T16:51:35.348Z,2.88
2024-04-25T16:54:02.213Z,3.70
2024-04-25T16:56:33.701Z,4.60
2024-04-25T16:59:00.580Z,2.42
2024-04-25T17:01:27.607Z,3.78
2024-04-25T17:03:54.535Z,2.13
2024-04-25T17:06:21.887Z,4.20
2024-04-25T17:08:49.596Z,3.42
2024-04-25T17:11:23.193Z,3.13
2024-04-25T17:13:56.211Z,2.70
2024-04-25T17:16:23.155Z,2.63
2024-04-25T17:18:56.047Z,3.28
2024-04-25T17:21:24.964Z,2.80
2024-04-25T17:23:56.290Z,5.05
2024-04-25T17:26:24.151Z,5.07
2024-04-25T17:28:52.591Z,3.42
2024-04-25T17:31:19.714Z,1.30
2024-04-25T17:33:49.341Z,2.65
2024-04-25T17:36:19.840Z,3.47
2024-04-25T17:38:46.915Z,3.20
2024-04-25T17:41:14.135Z,3.00
2024-04-25T17:43:40.993Z,4.75
2024-04-25T17:46:09.551Z,3.65
2024-04-25T17:48:36.784Z,4.60
2024-04-25T17:51:03.893Z,3.95
2024-04-25T17:53:30.912Z,4.32
2024-04-25T17:55:57.759Z,6.15
2024-04-25T17:58:24.900Z,3.42
2024-04-25T18:00:53.135Z,6.40
2024-04-25T18:03:20.098Z,6.57
2024-04-25T18:05:47.185Z,6.75
2024-04-25T18:08:14.329Z,5.05
2024-04-25T18:10:43.354Z,5.38
2024-04-25T18:13:13.054Z,4.32
2024-04-25T18:15:44.647Z,4.30
2024-04-25T18:18:11.579Z,3.70
2024-04-25T18:20:39.389Z,6.97
2024-04-25T18:23:06.846Z,7.13
2024-04-25T18:25:33.989Z,7.63
2024-04-25T18:28:01.293Z,4.05
2024-04-25T18:30:28.648Z,6.97
2024-04-25T18:32:56.040Z,4.55
2024-04-25T18:35:23.499Z,5.65
2024-04-25T18:37:50.390Z,4.90
2024-04-25T18:40:17.307Z,6.43
2024-04-25T18:42:44.165Z,4.20
2024-04-25T18:45:11.318Z,4.07
2024-04-25T18:47:40.642Z,6.15
2024-04-25T18:50:07.864Z,5.45
2024-04-25T18:52:37.452Z,6.25
2024-04-25T18:55:07.099Z,4.75
2024-04-25T18:57:34.048Z,4.63
2024-04-25T19:00:01.047Z,5.47
2024-04-25T19:02:29.922Z,8.77
2024-04-25T19:04:56.936Z,9.35
2024-04-25T19:07:23.939Z,6.50
2024-04-25T19:09:52.731Z,8.55
2024-04-25T19:12:20.884Z,8.73
2024-04-25T19:14:48.739Z,8.32
2024-04-25T19:17:15.863Z,8.23
2024-04-25T19:19:48.900Z,8.10
2024-04-25T19:22:17.101Z,8.63
2024-04-25T19:24:48.386Z,6.78
2024-04-25T19:27:15.994Z,6.88
2024-04-25T19:29:42.868Z,7.15
2024-04-25T19:32:12.338Z,6.35
2024-04-25T19:34:41.891Z,5.45
2024-04-25T19:37:10.889Z,8.98
2024-04-25T19:39:39.870Z,5.80
2024-04-25T19:42:08.309Z,4.90
2024-04-25T19:44:35.191Z,7.15
2024-04-25T19:47:02.419Z,7.00
2024-04-25T19:49:29.390Z,7.65
2024-04-25T19:51:59.434Z,7.00
2024-04-25T19:54:26.526Z,7.38
2024-04-25T19:56:55.415Z,7.40
2024-04-25T19:59:22.414Z,5.72
2024-04-25T20:01:52.523Z,8.07
2024-04-25T20:04:21.750Z,6.53
2024-04-25T20:06:50.548Z,8.98
2024-04-25T20:09:19.185Z,7.90
2024-04-25T20:11:46.861Z,5.90
2024-04-25T20:14:14.057Z,6.30
2024-04-25T20:16:41.313Z,5.60
2024-04-25T20:19:27.506Z,11.15
2024-04-25T20:21:57.748Z,11.68
2024-04-25T20:24:26.714Z,7.53
2024-04-25T20:26:56.387Z,8.85
2024-04-25T20:29:25.562Z,8.43
2024-04-25T20:31:55.661Z,8.68
2024-04-25T20:34:23.784Z,13.40
2024-04-25T20:36:50.734Z,13.65
2024-04-25T20:39:17.538Z,13.88
2024-04-25T20:41:45.208Z,12.75
2024-04-25T20:44:14.970Z,11.13
2024-04-25T20:46:42.010Z,9.63
2024-04-25T20:49:09.128Z,9.68
2024-04-25T20:51:41.775Z,13.10
2024-04-25T20:54:10.456Z,10.88
2024-04-25T20:56:42.037Z,9.68
2024-04-25T20:59:09.318Z,12.25
2024-04-25T21:01:38.259Z,8.35
2024-04-25T21:04:05.489Z,10.93
2024-04-25T21:06:32.654Z,12.57
2024-04-25T21:08:59.553Z,9.05
2024-04-25T21:11:29.521Z,6.20
2024-04-25T21:13:58.971Z,6.45
2024-04-25T21:16:35.210Z,6.75
2024-04-25T21:19:02.106Z,12.23
2024-04-25T21:21:28.956Z,11.55
2024-04-25T21:23:58.066Z,10.55
2024-04-25T21:26:25.012Z,7.00
2024-04-25T21:28:51.960Z,9.25
2024-04-25T21:31:21.019Z,10.57
2024-04-25T21:33:49.514Z,8.43
2024-04-25T21:36:16.564Z,11.25
2024-04-25T21:38:46.050Z,9.40
2024-04-25T21:41:12.969Z,8.20
2024-04-25T21:43:42.928Z,9.82
2024-04-25T21:46:09.827Z,8.48
2024-04-25T21:48:36.698Z,8.82
2024-04-25T21:51:06.201Z,7.75
2024-04-25T21:53:32.974Z,7.72
2024-04-25T21:55:59.868Z,6.15
2024-04-25T21:58:26.781Z,6.70
2024-04-25T22:00:53.695Z,6.75
2024-04-25T22:03:20.594Z,8.73
2024-04-25T22:05:49.565Z,5.10
2024-04-25T22:08:19.214Z,5.90
2024-04-25T22:10:46.087Z,9.45
2024-04-25T22:13:13.252Z,10.75
2024-04-25T22:15:40.089Z,11.50
2024-04-25T22:18:07.926Z,11.25
2024-04-25T22:20:34.953Z,9.65
2024-04-25T22:23:01.752Z,11.15
2024-04-25T22:25:30.752Z,8.48
2024-04-25T22:27:57.667Z,8.45
2024-04-25T22:30:26.861Z,10.45
2024-04-25T22:32:53.885Z,9.98
2024-04-25T22:35:21.076Z,9.70
2024-04-25T22:37:47.954Z,14.00
2024-04-25T22:40:14.847Z,7.32
2024-04-25T22:42:42.027Z,8.48
2024-04-25T22:45:11.563Z,9.15
2024-04-25T22:47:40.032Z,9.48
2024-04-25T22:50:07.157Z,8.98
2024-04-25T22:52:33.970Z,6.47
2024-04-25T22:55:00.878Z,8.48
2024-04-25T22:57:27.715Z,7.82
2024-04-25T22:59:54.675Z,7.68
2024-04-25T23:02:23.744Z,5.90
2024-04-25T23:04:52.821Z,7.53
2024-04-25T23:07:19.652Z,11.00
2024-04-25T23:09:46.509Z,8.15
2024-04-25T23:12:13.432Z,8.02
2024-04-25T23:14:44.065Z,9.43
2024-04-25T23:17:13.025Z,11.23
2024-04-25T23:19:39.835Z,13.05
2024-04-25T23:22:06.720Z,7.18
2024-04-25T23:24:34.187Z,8.13
2024-04-25T23:27:05.701Z,12.00
2024-04-25T23:29:32.609Z,7.30
2024-04-25T23:31:59.410Z,13.27
2024-04-25T23:34:26.235Z,7.78
2024-04-25T23:36:53.080Z,6.18
2024-04-25T23:39:22.442Z,10.73
2024-04-25T23:41:49.431Z,13.10
2024-04-25T23:44:16.338Z,11.70
2024-04-25T23:46:45.632Z,9.30
2024-04-25T23:49:12.503Z,9.48
2024-04-25T23:51:41.501Z,8.40
2024-04-25T23:54:10.823Z,8.82
2024-04-25T23:56:37.655Z,9.43
2024-04-25T23:59:04.907Z,9.82
